createdAt,value
2018-09-15T00:00:04.782Z,93.60
2018-09-15T00:02:32.916Z,93.60
2018-09-15T00:05:01.103Z,93.70
2018-09-15T00:07:29.262Z,93.70
2018-09-15T00:09:57.478Z,93.70
2018-09-15T00:12:25.599Z,93.80
2018-09-15T00:14:53.785Z,93.60
2018-09-15T00:17:21.991Z,93.80
2018-09-15T00:19:50.131Z,93.80
2018-09-15T00:22:18.306Z,93.80
2018-09-15T00:24:46.584Z,93.80
2018-09-15T00:27:14.774Z,94.00
2018-09-15T00:29:43.091Z,94.10
2018-09-15T00:32:11.225Z,94.30
2018-09-15T00:34:39.411Z,94.40
2018-09-15T00:37:07.612Z,94.50
2018-09-15T00:39:35.812Z,94.70
2018-09-15T00:42:03.968Z,94.70
2018-09-15T00:44:32.150Z,94.70
2018-09-15T00:47:01.284Z,94.80
2018-09-15T00:49:29.440Z,94.80
2018-09-15T00:51:58.108Z,94.90
2018-09-15T00:54:26.306Z,95.00
2018-09-15T00:56:54.498Z,95.00
2018-09-15T00:59:22.652Z,95.40
2018-09-15T01:01:52.085Z,95.20
2018-09-15T01:04:20.231Z,95.30
2018-09-15T01:06:49.504Z,95.30
2018-09-15T01:09:17.631Z,95.30
2018-09-15T01:11:45.814Z,95.40
2018-09-15T01:14:14.082Z,95.50
2018-09-15T01:16:42.122Z,95.50
2018-09-15T01:19:10.294Z,95.60
2018-09-15T01:21:39.340Z,95.60
2018-09-15T01:24:08.629Z,95.60
2018-09-15T01:26:36.877Z,95.60
2018-09-15T01:29:05.034Z,95.50
2018-09-15T01:31:33.224Z,95.60
2018-09-15T01:34:01.434Z,95.60
2018-09-15T01:36:29.563Z,95.60
2018-09-15T01:38:58.334Z,95.60
2018-09-15T01:41:26.486Z,95.60
2018-09-15T01:43:54.605Z,95.50
2018-09-15T01:46:22.743Z,95.50
2018-09-15T01:48:50.860Z,95.50
2018-09-15T01:51:19.028Z,95.50
2018-09-15T01:53:47.200Z,95.60
2018-09-15T01:56:15.382Z,95.70
2018-09-15T01:58:43.528Z,95.70
2018-09-15T02:01:11.660Z,95.60
2018-09-15T02:03:39.800Z,95.60
2018-09-15T02:06:07.996Z,95.80
2018-09-15T02:08:36.166Z,95.90
2018-09-15T02:11:04.410Z,95.90
2018-09-15T02:13:32.549Z,96.00
2018-09-15T02:16:00.674Z,96.00
2018-09-15T02:18:28.874Z,96.20
2018-09-15T02:20:57.010Z,95.90
2018-09-15T02:23:25.166Z,96.00
2018-09-15T02:25:53.330Z,96.10
2018-09-15T02:28:21.534Z,96.20
2018-09-15T02:30:49.694Z,96.30
2018-09-15T02:33:19.348Z,96.50
2018-09-15T02:35:47.476Z,96.60
2018-09-15T02:38:15.653Z,96.70
2018-09-15T02:40:43.813Z,96.80
2018-09-15T02:43:12.504Z,96.90
2018-09-15T02:45:40.669Z,97.00
2018-09-15T02:48:08.841Z,97.00
2018-09-15T02:50:37.112Z,97.10
2018-09-15T02:53:05.397Z,97.20
2018-09-15T02:55:34.565Z,97.30
2018-09-15T02:58:02.724Z,97.40
2018-09-15T03:00:31.090Z,97.50
2018-09-15T03:02:59.256Z,97.50
2018-09-15T03:05:27.382Z,97.50
2018-09-15T03:07:55.520Z,97.50
2018-09-15T03:10:23.653Z,97.60
2018-09-15T03:12:51.807Z,97.60
2018-09-15T03:15:19.935Z,97.70
2018-09-15T03:17:48.097Z,97.70
2018-09-15T03:20:16.256Z,97.90
2018-09-15T03:22:44.389Z,97.90
2018-09-15T03:25:12.529Z,97.90
2018-09-15T03:27:40.704Z,98.00
2018-09-15T03:30:08.831Z,97.90
2018-09-15T03:32:37.004Z,97.80
2018-09-15T03:35:05.183Z,97.80
2018-09-15T03:37:33.340Z,97.80
2018-09-15T03:40:01.486Z,97.90
2018-09-15T03:42:29.709Z,97.90
2018-09-15T03:44:57.836Z,97.90
2018-09-15T03:47:25.986Z,97.70
2018-09-15T03:49:54.158Z,97.50
2018-09-15T03:52:22.332Z,97.00
2018-09-15T03:54:50.485Z,96.70
2018-09-15T03:57:18.627Z,96.50
2018-09-15T03:59:46.796Z,96.30
2018-09-15T04:02:14.895Z,96.00
2018-09-15T04:04:43.045Z,95.80
2018-09-15T04:07:11.302Z,95.70
2018-09-15T04:09:39.458Z,95.80
2018-09-15T04:12:07.619Z,95.30
2018-09-15T04:14:35.789Z,95.10
2018-09-15T04:17:04.038Z,95.00
2018-09-15T04:19:32.212Z,94.90
2018-09-15T04:22:01.048Z,94.70
2018-09-15T04:24:30.194Z,94.70
2018-09-15T04:26:58.370Z,94.60
2018-09-15T04:29:26.538Z,94.50
2018-09-15T04:31:54.824Z,94.20
2018-09-15T04:34:22.959Z,93.90
2018-09-15T04:36:51.144Z,93.50
2018-09-15T04:39:19.301Z,93.30
2018-09-15T04:41:47.551Z,92.90
2018-09-15T04:44:15.692Z,92.90
2018-09-15T04:46:43.822Z,92.60
2018-09-15T04:51:49.010Z,92.50
2018-09-15T04:54:18.383Z,92.30
2018-09-15T04:56:46.590Z,92.30
2018-09-15T04:59:14.745Z,92.30
2018-09-15T05:01:42.898Z,92.10
2018-09-15T05:04:11.168Z,92.10
2018-09-15T05:06:39.422Z,91.60
2018-09-15T05:09:09.626Z,91.50
2018-09-15T05:11:37.800Z,91.50
2018-09-15T05:14:05.966Z,91.50
2018-09-15T05:16:34.416Z,91.40
2018-09-15T05:19:02.604Z,91.60
2018-09-15T05:21:30.786Z,91.20
2018-09-15T05:23:58.988Z,91.30
2018-09-15T05:26:27.158Z,91.30
2018-09-15T05:28:55.273Z,91.30
2018-09-15T05:31:23.465Z,91.20
2018-09-15T05:33:51.756Z,91.20
2018-09-15T05:36:20.029Z,91.20
2018-09-15T05:38:48.249Z,91.10
2018-09-15T05:41:16.476Z,91.00
2018-09-15T05:43:44.624Z,90.90
2018-09-15T05:46:12.730Z,90.80
2018-09-15T05:48:41.408Z,90.60
2018-09-15T05:51:09.595Z,90.50
2018-09-15T05:53:37.740Z,90.30
2018-09-15T05:56:06.202Z,90.10
2018-09-15T05:58:34.368Z,90.10
2018-09-15T06:01:02.519Z,89.60
2018-09-15T06:03:30.696Z,89.60
2018-09-15T06:05:58.870Z,89.50
2018-09-15T06:08:27.178Z,89.20
2018-09-15T06:10:55.387Z,89.00
2018-09-15T06:13:23.616Z,88.90
2018-09-15T06:15:51.838Z,88.80
2018-09-15T06:18:20.014Z,88.10
2018-09-15T06:20:48.273Z,86.90
2018-09-15T06:23:16.526Z,86.20
2018-09-15T06:25:45.543Z,85.90
2018-09-15T06:28:13.680Z,85.60
2018-09-15T06:30:41.912Z,85.50
2018-09-15T06:33:10.184Z,85.40
2018-09-15T06:35:38.358Z,85.30
2018-09-15T06:38:06.942Z,85.00
2018-09-15T06:40:35.615Z,84.90
2018-09-15T06:43:03.747Z,84.80
2018-09-15T06:45:31.910Z,84.90
2018-09-15T06:48:00.051Z,84.90
2018-09-15T06:50:28.188Z,84.20
2018-09-15T06:52:56.350Z,84.30
2018-09-15T06:55:24.513Z,83.70
2018-09-15T06:57:52.658Z,84.00
2018-09-15T07:00:20.809Z,84.00
2018-09-15T07:02:49.064Z,83.90
2018-09-15T07:05:17.227Z,83.50
2018-09-15T07:07:47.025Z,83.20
2018-09-15T07:10:16.862Z,82.70
2018-09-15T07:12:45.122Z,83.30
2018-09-15T07:15:13.254Z,83.00
2018-09-15T07:17:41.434Z,82.50
2018-09-15T07:20:09.720Z,82.50
2018-09-15T07:22:37.855Z,82.50
2018-09-15T07:25:06.014Z,82.50
2018-09-15T07:27:34.782Z,82.00
2018-09-15T07:30:02.988Z,82.40
2018-09-15T07:32:31.203Z,82.10
2018-09-15T07:34:59.494Z,82.40
2018-09-15T07:37:27.648Z,82.10
2018-09-15T07:39:55.816Z,82.00
2018-09-15T07:42:24.377Z,82.00
2018-09-15T07:44:52.673Z,81.80
2018-09-15T07:47:20.684Z,82.00
2018-09-15T07:49:48.790Z,81.50
2018-09-15T07:52:16.947Z,81.50
2018-09-15T07:54:45.347Z,81.60
2018-09-15T07:57:13.517Z,81.10
2018-09-15T07:59:41.748Z,81.10
2018-09-15T08:02:15.539Z,80.90
2018-09-15T08:04:43.734Z,81.00
2018-09-15T08:07:11.860Z,81.10
2018-09-15T08:09:40.143Z,80.70
2018-09-15T08:12:08.322Z,80.10
2018-09-15T08:14:36.541Z,79.90
2018-09-15T08:17:04.736Z,79.80
2018-09-15T08:19:32.896Z,79.70
2018-09-15T08:22:01.046Z,79.60
2018-09-15T08:24:29.194Z,78.30
2018-09-15T08:26:57.443Z,78.60
2018-09-15T08:29:26.302Z,78.70
2018-09-15T08:31:54.644Z,78.80
2018-09-15T08:34:23.037Z,78.50
2018-09-15T08:36:51.369Z,77.90
2018-09-15T08:39:19.770Z,77.30
2018-09-15T08:41:47.999Z,77.40
2018-09-15T08:44:16.236Z,77.30
2018-09-15T08:46:45.166Z,76.90
2018-09-15T08:49:13.340Z,76.70
2018-09-15T08:51:41.482Z,75.80
2018-09-15T08:54:09.726Z,75.30
2018-09-15T08:56:37.876Z,74.90
2018-09-15T08:59:06.062Z,75.30
2018-09-15T09:01:34.336Z,75.70
2018-09-15T09:04:02.537Z,75.30
2018-09-15T09:06:30.716Z,75.50
2018-09-15T09:08:58.892Z,74.80
2018-09-15T09:11:27.108Z,74.40
2018-09-15T09:13:55.232Z,74.00
2018-09-15T09:16:23.425Z,73.80
2018-09-15T09:18:52.076Z,73.30
2018-09-15T09:21:20.235Z,73.50
2018-09-15T09:23:48.480Z,74.10
2018-09-15T09:26:18.420Z,74.30
2018-09-15T09:28:47.661Z,74.50
2018-09-15T09:31:16.140Z,74.30
2018-09-15T09:33:45.520Z,74.00
2018-09-15T09:36:13.956Z,73.60
2018-09-15T09:38:42.135Z,73.40
2018-09-15T09:41:11.352Z,73.50
2018-09-15T09:43:39.676Z,73.40
2018-09-15T09:46:07.886Z,73.00
2018-09-15T09:48:36.084Z,72.80
2018-09-15T09:51:04.298Z,72.20
2018-09-15T09:53:32.541Z,73.00
2018-09-15T09:56:00.731Z,73.00
2018-09-15T09:58:28.959Z,73.60
2018-09-15T10:00:58.031Z,73.70
2018-09-15T10:03:26.708Z,74.10
2018-09-15T10:05:55.065Z,74.30
2018-09-15T10:08:23.299Z,74.10
2018-09-15T10:10:52.184Z,73.80
2018-09-15T10:13:20.480Z,73.10
2018-09-15T10:15:48.681Z,72.80
2018-09-15T10:18:17.012Z,72.80
2018-09-15T10:20:45.200Z,71.50
2018-09-15T10:23:13.427Z,71.70
2018-09-15T10:25:41.608Z,70.90
2018-09-15T10:28:09.848Z,71.00
2018-09-15T10:30:38.060Z,70.90
2018-09-15T10:33:06.938Z,71.00
2018-09-15T10:35:35.123Z,70.60
2018-09-15T10:38:03.262Z,70.80
2018-09-15T10:40:31.450Z,71.10
2018-09-15T10:42:59.782Z,71.00
2018-09-15T10:45:27.896Z,70.70
2018-09-15T10:47:56.200Z,71.20
2018-09-15T10:50:24.578Z,71.20
2018-09-15T10:52:53.572Z,71.00
2018-09-15T10:55:21.849Z,71.10
2018-09-15T10:57:50.046Z,70.60
2018-09-15T11:00:18.298Z,69.70
2018-09-15T11:02:46.428Z,70.00
2018-09-15T11:05:14.586Z,68.70
2018-09-15T11:07:44.592Z,67.90
2018-09-15T11:10:12.842Z,68.50
2018-09-15T11:12:41.757Z,68.70
2018-09-15T11:15:09.923Z,69.50
2018-09-15T11:17:38.097Z,69.40
2018-09-15T11:20:07.522Z,69.00
2018-09-15T11:22:35.789Z,69.00
2018-09-15T11:25:03.908Z,67.80
2018-09-15T11:27:32.177Z,67.70
2018-09-15T11:30:00.345Z,67.10
2018-09-15T11:32:28.525Z,66.80
2018-09-15T11:34:57.847Z,66.10
2018-09-15T11:37:27.078Z,65.50
2018-09-15T11:39:55.259Z,65.40
2018-09-15T11:42:23.684Z,65.00
2018-09-15T11:44:51.941Z,65.00
2018-09-15T11:47:20.456Z,64.80
2018-09-15T11:49:48.654Z,64.90
2018-09-15T11:52:16.864Z,65.00
2018-09-15T11:54:45.198Z,65.40
2018-09-15T11:57:13.493Z,65.30
2018-09-15T11:59:41.942Z,64.80
2018-09-15T12:02:10.155Z,64.70
2018-09-15T12:04:39.610Z,64.70
2018-09-15T12:07:07.837Z,64.80
2018-09-15T12:09:36.077Z,64.50
2018-09-15T12:12:04.246Z,64.70
2018-09-15T12:14:32.424Z,65.70
2018-09-15T12:17:00.613Z,64.80
2018-09-15T12:19:28.823Z,65.50
2018-09-15T12:21:57.109Z,64.70
2018-09-15T12:24:25.368Z,64.20
2018-09-15T12:26:55.064Z,63.20
2018-09-15T12:29:23.284Z,63.00
2018-09-15T12:31:54.169Z,63.00
2018-09-15T12:34:22.439Z,62.90
2018-09-15T12:36:50.583Z,61.30
2018-09-15T12:39:18.760Z,60.60
2018-09-15T12:41:53.675Z,60.90
2018-09-15T12:44:21.947Z,60.50
2018-09-15T12:46:50.700Z,60.70
2018-09-15T12:49:19.454Z,60.00
2018-09-15T12:51:47.888Z,59.70
2018-09-15T12:54:16.046Z,57.90
2018-09-15T12:56:44.212Z,58.00
2018-09-15T12:59:12.354Z,57.10
2018-09-15T13:01:40.589Z,57.10
2018-09-15T13:04:08.865Z,56.90
2018-09-15T13:06:37.059Z,56.80
2018-09-15T13:09:07.804Z,57.00
2018-09-15T13:11:35.961Z,56.20
2018-09-15T13:14:04.191Z,55.70
2018-09-15T13:16:32.345Z,55.80
2018-09-15T13:19:00.694Z,56.00
2018-09-15T13:21:28.804Z,56.10
2018-09-15T13:23:56.938Z,56.30
2018-09-15T13:26:25.071Z,56.90
2018-09-15T13:28:53.211Z,56.70
2018-09-15T13:31:21.368Z,57.10
2018-09-15T13:33:49.526Z,57.50
2018-09-15T13:36:17.708Z,57.50
2018-09-15T13:38:45.865Z,57.90
2018-09-15T13:41:14.066Z,58.00
2018-09-15T13:43:42.302Z,57.70
2018-09-15T13:46:11.116Z,57.70
2018-09-15T13:48:39.256Z,57.70
2018-09-15T13:51:07.602Z,57.60
2018-09-15T13:53:35.737Z,57.50
2018-09-15T13:56:03.920Z,57.60
2018-09-15T13:58:32.175Z,57.60
2018-09-15T14:01:00.569Z,57.90
2018-09-15T14:03:28.746Z,57.90
2018-09-15T14:05:56.987Z,58.10
2018-09-15T14:08:26.254Z,57.90
2018-09-15T14:10:54.497Z,56.20
2018-09-15T14:13:22.656Z,56.20
2018-09-15T14:15:50.786Z,56.60
2018-09-15T14:18:18.950Z,57.00
2018-09-15T14:20:47.131Z,57.10
2018-09-15T14:23:15.273Z,57.10
2018-09-15T14:25:43.411Z,57.20
2018-09-15T14:28:11.582Z,57.40
2018-09-15T14:30:39.741Z,57.50
2018-09-15T14:33:08.241Z,57.40
2018-09-15T14:35:36.698Z,57.60
2018-09-15T14:38:04.997Z,58.10
2018-09-15T14:40:33.128Z,58.30
2018-09-15T14:43:01.287Z,58.50
2018-09-15T14:45:29.477Z,58.90
2018-09-15T14:47:57.704Z,59.10
2018-09-15T14:50:26.046Z,59.20
2018-09-15T14:52:54.107Z,59.30
2018-09-15T14:55:22.253Z,59.00
2018-09-15T14:57:50.369Z,59.20
2018-09-15T15:00:18.525Z,59.00
2018-09-15T15:02:50.523Z,58.50
2018-09-15T15:05:18.650Z,58.70
2018-09-15T15:07:47.376Z,58.50
2018-09-15T15:10:15.462Z,59.30
2018-09-15T15:12:43.690Z,58.70
2018-09-15T15:15:11.942Z,58.80
2018-09-15T15:17:40.063Z,58.80
2018-09-15T15:20:08.203Z,59.00
2018-09-15T15:22:36.391Z,59.00
2018-09-15T15:25:05.349Z,59.40
2018-09-15T15:27:33.561Z,59.60
2018-09-15T15:30:01.693Z,59.50
2018-09-15T15:32:29.935Z,59.80
2018-09-15T15:34:58.087Z,59.80
2018-09-15T15:37:26.275Z,60.00
2018-09-15T15:39:54.461Z,60.00
2018-09-15T15:42:22.749Z,60.00
2018-09-15T15:44:50.874Z,59.80
2018-09-15T15:47:19.221Z,60.00
2018-09-15T15:49:48.055Z,59.90
2018-09-15T15:52:16.195Z,60.00
2018-09-15T15:54:44.313Z,60.10
2018-09-15T15:57:12.557Z,61.00
2018-09-15T15:59:41.853Z,60.70
2018-09-15T16:02:10.011Z,61.00
2018-09-15T16:04:38.135Z,61.30
2018-09-15T16:07:06.287Z,61.60
2018-09-15T16:09:34.591Z,61.70
2018-09-15T16:12:03.825Z,62.00
2018-09-15T16:14:32.005Z,62.10
2018-09-15T16:17:00.177Z,62.40
2018-09-15T16:19:28.353Z,62.50
2018-09-15T16:21:56.515Z,62.70
2018-09-15T16:24:24.649Z,62.90
2018-09-15T16:26:52.829Z,63.50
2018-09-15T16:29:21.509Z,63.80
2018-09-15T16:31:49.718Z,64.00
2018-09-15T16:34:17.971Z,64.10
2018-09-15T16:36:46.159Z,64.80
2018-09-15T16:39:14.306Z,63.70
2018-09-15T16:41:42.457Z,62.90
2018-09-15T16:44:10.594Z,62.30
2018-09-15T16:46:38.817Z,62.20
2018-09-15T16:49:07.774Z,61.60
2018-09-15T16:51:37.185Z,61.80
2018-09-15T16:54:06.375Z,61.90
2018-09-15T16:56:34.975Z,62.20
2018-09-15T16:59:03.156Z,62.40
2018-09-15T17:01:31.315Z,62.90
2018-09-15T17:03:59.457Z,63.40
2018-09-15T17:06:27.837Z,63.30
2018-09-15T17:08:56.974Z,63.50
2018-09-15T17:11:25.954Z,63.70
2018-09-15T17:13:54.133Z,64.10
2018-09-15T17:16:22.370Z,64.50
2018-09-15T17:18:50.524Z,64.90
2018-09-15T17:21:18.673Z,65.40
2018-09-15T17:23:46.837Z,65.80
2018-09-15T17:26:15.074Z,66.30
2018-09-15T17:28:43.219Z,66.40
2018-09-15T17:31:11.408Z,66.80
2018-09-15T17:33:39.638Z,67.20
2018-09-15T17:36:07.795Z,67.40
2018-09-15T17:38:36.122Z,67.60
2018-09-15T17:41:04.316Z,67.90
2018-09-15T17:43:32.455Z,68.30
2018-09-15T17:46:00.561Z,68.70
2018-09-15T17:48:28.806Z,69.30
2018-09-15T17:50:57.018Z,69.90
2018-09-15T17:53:25.239Z,70.20
2018-09-15T17:55:53.398Z,70.50
2018-09-15T17:58:21.600Z,70.80
2018-09-15T18:00:50.534Z,71.00
2018-09-15T18:03:18.672Z,71.40
2018-09-15T18:05:46.852Z,71.50
2018-09-15T18:08:15.019Z,71.80
2018-09-15T18:10:43.172Z,72.00
2018-09-15T18:13:11.635Z,72.40
2018-09-15T18:15:39.847Z,72.70
2018-09-15T18:18:08.181Z,72.90
2018-09-15T18:20:37.299Z,72.90
2018-09-15T18:23:05.504Z,73.20
2018-09-15T18:25:33.734Z,73.10
2018-09-15T18:28:01.897Z,73.40
2018-09-15T18:30:31.153Z,73.60
2018-09-15T18:32:59.389Z,73.80
2018-09-15T18:35:27.567Z,74.10
2018-09-15T18:37:55.805Z,74.30
2018-09-15T18:40:23.956Z,74.50
2018-09-15T18:42:52.187Z,74.40
2018-09-15T18:45:20.325Z,75.10
2018-09-15T18:47:48.453Z,75.40
2018-09-15T18:50:16.738Z,75.80
2018-09-15T18:52:44.911Z,76.30
2018-09-15T18:55:13.289Z,76.40
2018-09-15T18:57:41.473Z,76.60
2018-09-15T19:00:09.677Z,76.90
2018-09-15T19:02:37.950Z,77.20
2018-09-15T19:05:06.309Z,77.50
2018-09-15T19:07:34.426Z,77.50
2018-09-15T19:10:02.615Z,77.80
2018-09-15T19:12:30.857Z,78.00
2018-09-15T19:14:59.025Z,78.40
2018-09-15T19:17:27.532Z,78.70
2018-09-15T19:19:55.847Z,79.00
2018-09-15T19:22:24.045Z,78.90
2018-09-15T19:24:52.244Z,79.00
2018-09-15T19:27:20.419Z,79.00
2018-09-15T19:29:48.711Z,79.00
2018-09-15T19:32:16.856Z,79.00
2018-09-15T19:34:44.989Z,79.00
2018-09-15T19:37:13.241Z,79.20
2018-09-15T19:39:42.402Z,79.60
2018-09-15T19:42:10.640Z,80.00
2018-09-15T19:44:38.908Z,80.50
2018-09-15T19:47:07.049Z,81.10
2018-09-15T19:49:35.193Z,81.80
2018-09-15T19:52:03.357Z,82.60
2018-09-15T19:54:31.501Z,83.10
2018-09-15T19:56:59.617Z,83.50
2018-09-15T19:59:27.795Z,83.30
2018-09-15T20:01:56.498Z,83.40
2018-09-15T20:04:25.285Z,83.40
2018-09-15T20:06:53.448Z,84.00
2018-09-15T20:09:21.595Z,85.00
2018-09-15T20:11:49.770Z,85.70
2018-09-15T20:14:17.922Z,86.40
2018-09-15T20:16:45.129Z,87.30
2018-09-15T20:19:12.415Z,87.80
2018-09-15T20:21:39.593Z,88.40
2018-09-15T20:24:07.777Z,88.70
2018-09-15T20:26:35.997Z,89.10
2018-09-15T20:29:04.185Z,90.20
2018-09-15T20:31:32.329Z,90.00
2018-09-15T20:34:00.473Z,90.00
2018-09-15T20:36:28.658Z,90.20
2018-09-15T20:38:56.815Z,90.30
2018-09-15T20:41:25.007Z,90.80
2018-09-15T20:43:53.133Z,91.10
2018-09-15T20:46:21.787Z,91.00
2018-09-15T20:48:50.365Z,91.10
2018-09-15T20:51:18.560Z,91.40
2018-09-15T20:53:46.717Z,91.70
2018-09-15T20:56:14.878Z,91.90
2018-09-15T20:58:43.010Z,92.40
2018-09-15T21:01:11.187Z,92.50
2018-09-15T21:03:39.299Z,92.80
2018-09-15T21:06:07.424Z,93.20
2018-09-15T21:08:35.566Z,93.60
2018-09-15T21:11:03.927Z,94.00
2018-09-15T21:13:32.053Z,94.00
2018-09-15T21:16:00.325Z,94.40
2018-09-15T21:18:28.460Z,94.60
2018-09-15T21:20:56.659Z,95.20
2018-09-15T21:23:24.772Z,95.20
2018-09-15T21:25:52.940Z,95.40
2018-09-15T21:28:21.064Z,95.60
2018-09-15T21:30:49.248Z,95.70
2018-09-15T21:33:17.388Z,95.70
2018-09-15T21:35:47.053Z,95.90
2018-09-15T21:38:15.189Z,95.90
2018-09-15T21:40:43.430Z,96.00
2018-09-15T21:43:11.726Z,96.00
2018-09-15T21:45:39.877Z,96.00
2018-09-15T21:48:08.105Z,96.10
2018-09-15T21:50:36.448Z,96.20
2018-09-15T21:53:04.612Z,96.20
2018-09-15T21:55:32.725Z,96.20
2018-09-15T21:58:00.864Z,96.70
2018-09-15T22:00:28.999Z,96.40
2018-09-15T22:02:57.122Z,96.50
2018-09-15T22:05:26.490Z,96.40
2018-09-15T22:07:54.675Z,96.30
2018-09-15T22:10:23.201Z,96.20
2018-09-15T22:12:51.365Z,96.00
2018-09-15T22:15:24.971Z,96.20
2018-09-15T22:17:54.087Z,96.10
2018-09-15T22:20:22.325Z,96.40
2018-09-15T22:22:50.477Z,96.10
2018-09-15T22:25:19.381Z,96.10
2018-09-15T22:27:48.038Z,95.90
2018-09-15T22:30:16.186Z,95.70
2018-09-15T22:32:44.918Z,95.80
2018-09-15T22:35:13.028Z,95.80
2018-09-15T22:37:41.264Z,95.80
2018-09-15T22:40:10.561Z,96.00
2018-09-15T22:42:38.692Z,95.90
2018-09-15T22:45:07.093Z,96.00
2018-09-15T22:47:35.257Z,96.00
2018-09-15T22:50:04.650Z,96.20
2018-09-15T22:52:32.834Z,96.50
2018-09-15T22:55:01.005Z,96.70
2018-09-15T22:57:30.377Z,97.10
2018-09-15T22:59:58.767Z,97.30
2018-09-15T23:02:26.921Z,97.30
2018-09-15T23:04:55.076Z,97.40
2018-09-15T23:07:23.222Z,97.60
2018-09-15T23:09:51.376Z,97.80
2018-09-15T23:12:20.266Z,97.60
2018-09-15T23:14:48.666Z,97.70
2018-09-15T23:17:16.923Z,97.80
2018-09-15T23:19:45.080Z,97.70
2018-09-15T23:22:13.206Z,97.70
2018-09-15T23:24:41.398Z,97.80
2018-09-15T23:27:09.615Z,97.90
2018-09-15T23:29:37.806Z,97.80
2018-09-15T23:32:06.193Z,97.80
2018-09-15T23:34:34.467Z,97.90
2018-09-15T23:37:02.622Z,97.70
2018-09-15T23:39:30.916Z,97.60
2018-09-15T23:41:59.043Z,97.50
2018-09-15T23:44:27.191Z,97.40
2018-09-15T23:46:55.403Z,97.30
2018-09-15T23:49:23.569Z,97.30
2018-09-15T23:51:51.711Z,97.20
2018-09-15T23:54:19.890Z,97.20
2018-09-15T23:56:48.049Z,97.30
2018-09-15T23:59:16.255Z,97.40
